sensor_id;sensor_type;location;lat;lon;timestamp;P1;durP1;ratioP1;P2;durP2;ratioP2
16640;SDS011;8434;47.990;7.880;2024-01-15T00:01:26;29.00;;;11.03;;
16640;SDS011;8434;47.990;7.880;2024-01-15T00:04:11;24.80;;;9.73;;
16640;SDS011;8434;47.990;7.880;2024-01-15T00:06:57;28.07;;;11.57;;
16640;SDS011;8434;47.990;7.880;2024-01-15T00:09:42;24.83;;;10.47;;
16640;SDS011;8434;47.990;7.880;2024-01-15T00:12:27;22.23;;;10.47;;
16640;SDS011;8434;47.990;7.880;2024-01-15T00:15:13;28.83;;;11.27;;
16640;SDS011;8434;47.990;7.880;2024-01-15T00:18:00;20.20;;;9.30;;
16640;SDS011;8434;47.990;7.880;2024-01-15T00:20:45;25.43;;;11.23;;
16640;SDS011;8434;47.990;7.880;2024-01-15T00:23:30;22.20;;;10.03;;
16640;SDS011;8434;47.990;7.880;2024-01-15T00:26:16;25.13;;;11.67;;
16640;SDS011;8434;47.990;7.880;2024-01-15T00:29:01;28.10;;;12.00;;
16640;SDS011;8434;47.990;7.880;2024-01-15T00:31:47;24.83;;;11.03;;
16640;SDS011;8434;47.990;7.880;2024-01-15T00:34:34;28.40;;;11.50;;
16640;SDS011;8434;47.990;7.880;2024-01-15T00:37:19;34.17;;;13.50;;
16640;SDS011;8434;47.990;7.880;2024-01-15T00:40:05;26.90;;;11.60;;
16640;SDS011;8434;47.990;7.880;2024-01-15T00:42:51;30.90;;;12.60;;
16640;SDS011;8434;47.990;7.880;2024-01-15T00:45:37;32.30;;;12.57;;
16640;SDS011;8434;47.990;7.880;2024-01-15T00:48:22;28.73;;;12.40;;
16640;SDS011;8434;47.990;7.880;2024-01-15T00:51:09;25.90;;;11.83;;
16640;SDS011;8434;47.990;7.880;2024-01-15T00:53:54;26.77;;;11.57;;
16640;SDS011;8434;47.990;7.880;2024-01-15T00:56:40;27.70;;;12.47;;
16640;SDS011;8434;47.990;7.880;2024-01-15T00:59:25;31.13;;;11.73;;
16640;SDS011;8434;47.990;7.880;2024-01-15T01:02:10;30.10;;;12.17;;
16640;SDS011;8434;47.990;7.880;2024-01-15T01:04:56;30.30;;;13.70;;
16640;SDS011;8434;47.990;7.880;2024-01-15T01:07:42;29.57;;;13.47;;
16640;SDS011;8434;47.990;7.880;2024-01-15T01:10:28;26.63;;;12.23;;
16640;SDS011;8434;47.990;7.880;2024-01-15T01:13:13;24.60;;;11.90;;
16640;SDS011;8434;47.990;7.880;2024-01-15T01:15:59;29.70;;;12.00;;
16640;SDS011;8434;47.990;7.880;2024-01-15T01:18:44;28.47;;;12.20;;
16640;SDS011;8434;47.990;7.880;2024-01-15T01:21:30;27.27;;;11.53;;
16640;SDS011;8434;47.990;7.880;2024-01-15T01:24:16;23.77;;;11.87;;
16640;SDS011;8434;47.990;7.880;2024-01-15T01:27:02;30.27;;;11.93;;
16640;SDS011;8434;47.990;7.880;2024-01-15T01:29:47;27.50;;;11.67;;
16640;SDS011;8434;47.990;7.880;2024-01-15T01:32:32;29.43;;;12.50;;
16640;SDS011;8434;47.990;7.880;2024-01-15T01:35:18;34.27;;;11.80;;
16640;SDS011;8434;47.990;7.880;2024-01-15T01:38:03;25.30;;;11.90;;
16640;SDS011;8434;47.990;7.880;2024-01-15T01:40:50;25.23;;;10.70;;
16640;SDS011;8434;47.990;7.880;2024-01-15T01:43:36;24.27;;;11.20;;
16640;SDS011;8434;47.990;7.880;2024-01-15T01:46:21;28.30;;;10.83;;
16640;SDS011;8434;47.990;7.880;2024-01-15T01:49:07;29.80;;;11.63;;
16640;SDS011;8434;47.990;7.880;2024-01-15T01:51:53;37.43;;;13.60;;
16640;SDS011;8434;47.990;7.880;2024-01-15T01:54:38;32.07;;;12.27;;
16640;SDS011;8434;47.990;7.880;2024-01-15T01:57:26;26.90;;;12.33;;
16640;SDS011;8434;47.990;7.880;2024-01-15T02:00:13;25.10;;;11.67;;
16640;SDS011;8434;47.990;7.880;2024-01-15T02:02:58;27.13;;;11.83;;
16640;SDS011;8434;47.990;7.880;2024-01-15T02:05:43;28.93;;;12.30;;
16640;SDS011;8434;47.990;7.880;2024-01-15T02:08:30;30.93;;;14.00;;
16640;SDS011;8434;47.990;7.880;2024-01-15T02:11:15;28.90;;;11.90;;
16640;SDS011;8434;47.990;7.880;2024-01-15T02:14:02;27.53;;;14.73;;
16640;SDS011;8434;47.990;7.880;2024-01-15T02:16:47;28.43;;;11.43;;
16640;SDS011;8434;47.990;7.880;2024-01-15T02:19:33;27.87;;;13.03;;
16640;SDS011;8434;47.990;7.880;2024-01-15T02:22:18;28.57;;;12.03;;
16640;SDS011;8434;47.990;7.880;2024-01-15T02:25:05;25.03;;;11.50;;
16640;SDS011;8434;47.990;7.880;2024-01-15T02:27:51;29.97;;;13.20;;
16640;SDS011;8434;47.990;7.880;2024-01-15T02:30:36;26.70;;;12.33;;
16640;SDS011;8434;47.990;7.880;2024-01-15T02:33:23;23.03;;;11.10;;
16640;SDS011;8434;47.990;7.880;2024-01-15T02:36:08;25.63;;;11.30;;
16640;SDS011;8434;47.990;7.880;2024-01-15T02:38:54;29.57;;;11.73;;
16640;SDS011;8434;47.990;7.880;2024-01-15T02:41:40;27.00;;;11.83;;
16640;SDS011;8434;47.990;7.880;2024-01-15T02:44:26;23.53;;;12.37;;
16640;SDS011;8434;47.990;7.880;2024-01-15T02:47:11;25.73;;;10.20;;
16640;SDS011;8434;47.990;7.880;2024-01-15T02:49:57;24.97;;;11.80;;
16640;SDS011;8434;47.990;7.880;2024-01-15T02:52:42;24.87;;;11.43;;
16640;SDS011;8434;47.990;7.880;2024-01-15T02:55:27;25.67;;;11.97;;
16640;SDS011;8434;47.990;7.880;2024-01-15T02:58:15;24.60;;;11.10;;
16640;SDS011;8434;47.990;7.880;2024-01-15T03:01:00;26.17;;;12.37;;
16640;SDS011;8434;47.990;7.880;2024-01-15T03:03:46;21.10;;;9.50;;
16640;SDS011;8434;47.990;7.880;2024-01-15T03:06:31;25.37;;;12.77;;
16640;SDS011;8434;47.990;7.880;2024-01-15T03:09:17;26.60;;;10.97;;
16640;SDS011;8434;47.990;7.880;2024-01-15T03:12:02;25.53;;;11.80;;
16640;SDS011;8434;47.990;7.880;2024-01-15T03:14:49;26.07;;;12.73;;
16640;SDS011;8434;47.990;7.880;2024-01-15T03:17:34;26.70;;;11.97;;
16640;SDS011;8434;47.990;7.880;2024-01-15T03:20:19;26.63;;;11.20;;
16640;SDS011;8434;47.990;7.880;2024-01-15T03:23:05;21.97;;;10.60;;
16640;SDS011;8434;47.990;7.880;2024-01-15T03:25:50;21.20;;;10.73;;
16640;SDS011;8434;47.990;7.880;2024-01-15T03:28:36;23.97;;;10.63;;
16640;SDS011;8434;47.990;7.880;2024-01-15T03:31:23;28.93;;;12.43;;
16640;SDS011;8434;47.990;7.880;2024-01-15T03:34:08;30.70;;;12.70;;
16640;SDS011;8434;47.990;7.880;2024-01-15T03:36:54;27.13;;;11.73;;
16640;SDS011;8434;47.990;7.880;2024-01-15T03:39:39;28.53;;;11.90;;
16640;SDS011;8434;47.990;7.880;2024-01-15T03:42:25;25.40;;;11.37;;
16640;SDS011;8434;47.990;7.880;2024-01-15T03:45:10;24.13;;;11.10;;
16640;SDS011;8434;47.990;7.880;2024-01-15T03:47:57;27.73;;;11.37;;
16640;SDS011;8434;47.990;7.880;2024-01-15T03:50:42;24.37;;;11.20;;
16640;SDS011;8434;47.990;7.880;2024-01-15T03:53:28;24.83;;;11.67;;
16640;SDS011;8434;47.990;7.880;2024-01-15T03:56:13;28.33;;;13.50;;
16640;SDS011;8434;47.990;7.880;2024-01-15T03:58:59;22.73;;;10.47;;
16640;SDS011;8434;47.990;7.880;2024-01-15T04:01:47;31.63;;;12.50;;
16640;SDS011;8434;47.990;7.880;2024-01-15T04:04:34;25.77;;;11.23;;
16640;SDS011;8434;47.990;7.880;2024-01-15T04:07:19;24.97;;;11.10;;
16640;SDS011;8434;47.990;7.880;2024-01-15T04:10:05;29.07;;;10.63;;
16640;SDS011;8434;47.990;7.880;2024-01-15T04:12:51;27.13;;;11.77;;
16640;SDS011;8434;47.990;7.880;2024-01-15T04:15:36;28.03;;;13.00;;
16640;SDS011;8434;47.990;7.880;2024-01-15T04:18:22;31.43;;;11.53;;
16640;SDS011;8434;47.990;7.880;2024-01-15T04:21:09;24.73;;;11.33;;
16640;SDS011;8434;47.990;7.880;2024-01-15T04:23:54;27.10;;;11.90;;
16640;SDS011;8434;47.990;7.880;2024-01-15T04:26:40;28.87;;;12.60;;
16640;SDS011;8434;47.990;7.880;2024-01-15T04:29:25;31.83;;;14.27;;
16640;SDS011;8434;47.990;7.880;2024-01-15T04:32:11;30.17;;;11.23;;
16640;SDS011;8434;47.990;7.880;2024-01-15T04:34:56;29.33;;;12.07;;
16640;SDS011;8434;47.990;7.880;2024-01-15T04:37:43;30.90;;;12.90;;
16640;SDS011;8434;47.990;7.880;2024-01-15T04:40:28;28.47;;;11.43;;
16640;SDS011;8434;47.990;7.880;2024-01-15T04:43:14;30.00;;;10.93;;
16640;SDS011;8434;47.990;7.880;2024-01-15T04:45:59;34.37;;;12.50;;
16640;SDS011;8434;47.990;7.880;2024-01-15T04:48:44;30.00;;;12.37;;
16640;SDS011;8434;47.990;7.880;2024-01-15T04:51:30;27.07;;;11.50;;
16640;SDS011;8434;47.990;7.880;2024-01-15T04:54:17;25.60;;;11.23;;
16640;SDS011;8434;47.990;7.880;2024-01-15T04:57:02;33.07;;;13.93;;
16640;SDS011;8434;47.990;7.880;2024-01-15T04:59:48;26.03;;;12.17;;
16640;SDS011;8434;47.990;7.880;2024-01-15T05:02:33;29.63;;;11.57;;
16640;SDS011;8434;47.990;7.880;2024-01-15T05:05:19;33.57;;;13.67;;
16640;SDS011;8434;47.990;7.880;2024-01-15T05:08:04;29.90;;;12.43;;
16640;SDS011;8434;47.990;7.880;2024-01-15T05:10:51;31.67;;;11.57;;
16640;SDS011;8434;47.990;7.880;2024-01-15T05:13:37;26.77;;;12.30;;
16640;SDS011;8434;47.990;7.880;2024-01-15T05:16:22;29.10;;;14.00;;
16640;SDS011;8434;47.990;7.880;2024-01-15T05:19:08;24.60;;;12.03;;
16640;SDS011;8434;47.990;7.880;2024-01-15T05:21:53;28.77;;;12.63;;
16640;SDS011;8434;47.990;7.880;2024-01-15T05:24:40;27.63;;;14.23;;
16640;SDS011;8434;47.990;7.880;2024-01-15T05:27:26;37.20;;;13.23;;
16640;SDS011;8434;47.990;7.880;2024-01-15T05:30:12;30.67;;;14.23;;
16640;SDS011;8434;47.990;7.880;2024-01-15T05:32:57;30.13;;;14.17;;
16640;SDS011;8434;47.990;7.880;2024-01-15T05:35:44;32.23;;;14.17;;
16640;SDS011;8434;47.990;7.880;2024-01-15T05:38:29;34.00;;;12.90;;
16640;SDS011;8434;47.990;7.880;2024-01-15T05:41:14;32.30;;;14.07;;
16640;SDS011;8434;47.990;7.880;2024-01-15T05:44:01;31.87;;;12.10;;
16640;SDS011;8434;47.990;7.880;2024-01-15T05:46:47;27.20;;;12.17;;
16640;SDS011;8434;47.990;7.880;2024-01-15T05:49:32;27.13;;;11.43;;
16640;SDS011;8434;47.990;7.880;2024-01-15T05:52:17;30.87;;;13.77;;
16640;SDS011;8434;47.990;7.880;2024-01-15T05:55:05;32.27;;;11.33;;
16640;SDS011;8434;47.990;7.880;2024-01-15T05:57:50;24.67;;;11.73;;
16640;SDS011;8434;47.990;7.880;2024-01-15T06:00:36;24.57;;;11.30;;
16640;SDS011;8434;47.990;7.880;2024-01-15T06:03:22;27.20;;;11.43;;
16640;SDS011;8434;47.990;7.880;2024-01-15T06:06:08;26.23;;;11.63;;
16640;SDS011;8434;47.990;7.880;2024-01-15T06:08:53;25.00;;;11.37;;
16640;SDS011;8434;47.990;7.880;2024-01-15T06:11:39;27.80;;;11.10;;
16640;SDS011;8434;47.990;7.880;2024-01-15T06:14:24;27.10;;;12.90;;
16640;SDS011;8434;47.990;7.880;2024-01-15T06:17:11;26.47;;;11.10;;
16640;SDS011;8434;47.990;7.880;2024-01-15T06:19:57;27.77;;;12.40;;
16640;SDS011;8434;47.990;7.880;2024-01-15T06:22:42;25.73;;;9.97;;
16640;SDS011;8434;47.990;7.880;2024-01-15T06:25:28;27.13;;;10.70;;
16640;SDS011;8434;47.990;7.880;2024-01-15T06:28:13;23.93;;;11.30;;
16640;SDS011;8434;47.990;7.880;2024-01-15T06:30:58;24.90;;;10.47;;
16640;SDS011;8434;47.990;7.880;2024-01-15T06:33:45;24.23;;;10.60;;
16640;SDS011;8434;47.990;7.880;2024-01-15T06:36:32;19.80;;;9.57;;
16640;SDS011;8434;47.990;7.880;2024-01-15T06:39:18;23.83;;;10.17;;
16640;SDS011;8434;47.990;7.880;2024-01-15T06:42:03;22.10;;;10.43;;
16640;SDS011;8434;47.990;7.880;2024-01-15T06:44:49;25.17;;;10.83;;
16640;SDS011;8434;47.990;7.880;2024-01-15T06:47:34;19.63;;;9.03;;
16640;SDS011;8434;47.990;7.880;2024-01-15T06:50:21;20.87;;;9.43;;
16640;SDS011;8434;47.990;7.880;2024-01-15T06:53:06;24.30;;;10.43;;
16640;SDS011;8434;47.990;7.880;2024-01-15T06:55:52;24.50;;;11.73;;
16640;SDS011;8434;47.990;7.880;2024-01-15T06:58:37;27.47;;;12.70;;
16640;SDS011;8434;47.990;7.880;2024-01-15T07:01:23;26.60;;;11.93;;
16640;SDS011;8434;47.990;7.880;2024-01-15T07:04:08;23.30;;;11.60;;
16640;SDS011;8434;47.990;7.880;2024-01-15T07:06:55;31.17;;;12.23;;
16640;SDS011;8434;47.990;7.880;2024-01-15T07:09:40;23.50;;;10.57;;
16640;SDS011;8434;47.990;7.880;2024-01-15T07:12:26;26.80;;;12.60;;
16640;SDS011;8434;47.990;7.880;2024-01-15T07:15:11;34.87;;;15.93;;
16640;SDS011;8434;47.990;7.880;2024-01-15T07:17:57;32.33;;;13.00;;
16640;SDS011;8434;47.990;7.880;2024-01-15T07:20:42;34.33;;;13.10;;
16640;SDS011;8434;47.990;7.880;2024-01-15T07:23:30;27.40;;;11.70;;
16640;SDS011;8434;47.990;7.880;2024-01-15T07:26:15;26.07;;;9.60;;
16640;SDS011;8434;47.990;7.880;2024-01-15T07:29:01;27.90;;;10.70;;
16640;SDS011;8434;47.990;7.880;2024-01-15T07:31:47;26.37;;;10.50;;
16640;SDS011;8434;47.990;7.880;2024-01-15T07:34:33;29.37;;;12.33;;
16640;SDS011;8434;47.990;7.880;2024-01-15T07:37:18;24.33;;;10.70;;
16640;SDS011;8434;47.990;7.880;2024-01-15T07:40:06;24.07;;;11.13;;
16640;SDS011;8434;47.990;7.880;2024-01-15T07:42:52;32.40;;;13.90;;
16640;SDS011;8434;47.990;7.880;2024-01-15T07:45:37;25.07;;;10.53;;
16640;SDS011;8434;47.990;7.880;2024-01-15T07:48:23;25.73;;;11.23;;
16640;SDS011;8434;47.990;7.880;2024-01-15T07:51:08;25.43;;;10.67;;
16640;SDS011;8434;47.990;7.880;2024-01-15T07:53:54;18.27;;;8.07;;
16640;SDS011;8434;47.990;7.880;2024-01-15T07:59:42;16.93;;;8.03;;
16640;SDS011;8434;47.990;7.880;2024-01-15T08:02:27;14.27;;;7.17;;
16640;SDS011;8434;47.990;7.880;2024-01-15T08:05:12;14.50;;;6.20;;
16640;SDS011;8434;47.990;7.880;2024-01-15T08:07:57;14.90;;;6.87;;
16640;SDS011;8434;47.990;7.880;2024-01-15T08:10:43;15.67;;;6.37;;
16640;SDS011;8434;47.990;7.880;2024-01-15T08:13:28;16.97;;;7.57;;
16640;SDS011;8434;47.990;7.880;2024-01-15T08:16:16;11.77;;;5.00;;
16640;SDS011;8434;47.990;7.880;2024-01-15T08:19:01;4.87;;;3.00;;
16640;SDS011;8434;47.990;7.880;2024-01-15T08:21:46;3.93;;;2.80;;
16640;SDS011;8434;47.990;7.880;2024-01-15T08:24:32;3.67;;;2.30;;
16640;SDS011;8434;47.990;7.880;2024-01-15T08:27:17;4.77;;;2.23;;
16640;SDS011;8434;47.990;7.880;2024-01-15T08:30:04;4.37;;;2.20;;
16640;SDS011;8434;47.990;7.880;2024-01-15T08:32:51;3.97;;;2.67;;
16640;SDS011;8434;47.990;7.880;2024-01-15T08:35:36;2.37;;;1.40;;
16640;SDS011;8434;47.990;7.880;2024-01-15T08:38:21;4.33;;;2.43;;
16640;SDS011;8434;47.990;7.880;2024-01-15T08:41:07;5.27;;;2.07;;
16640;SDS011;8434;47.990;7.880;2024-01-15T08:43:53;4.73;;;2.33;;
16640;SDS011;8434;47.990;7.880;2024-01-15T08:46:38;2.73;;;1.77;;
16640;SDS011;8434;47.990;7.880;2024-01-15T08:49:25;4.10;;;1.77;;
16640;SDS011;8434;47.990;7.880;2024-01-15T08:52:11;3.57;;;2.00;;
16640;SDS011;8434;47.990;7.880;2024-01-15T08:54:56;3.20;;;1.63;;
16640;SDS011;8434;47.990;7.880;2024-01-15T08:57:42;2.83;;;1.60;;
16640;SDS011;8434;47.990;7.880;2024-01-15T09:00:27;3.73;;;1.93;;
16640;SDS011;8434;47.990;7.880;2024-01-15T09:03:13;5.57;;;2.40;;
16640;SDS011;8434;47.990;7.880;2024-01-15T09:05:59;4.17;;;2.83;;
16640;SDS011;8434;47.990;7.880;2024-01-15T09:08:45;3.83;;;2.03;;
16640;SDS011;8434;47.990;7.880;2024-01-15T09:11:30;4.70;;;2.10;;
16640;SDS011;8434;47.990;7.880;2024-01-15T09:14:16;2.57;;;1.63;;
16640;SDS011;8434;47.990;7.880;2024-01-15T09:17:02;4.03;;;1.80;;
16640;SDS011;8434;47.990;7.880;2024-01-15T09:19:47;8.07;;;1.80;;
16640;SDS011;8434;47.990;7.880;2024-01-15T09:22:34;2.23;;;1.70;;
16640;SDS011;8434;47.990;7.880;2024-01-15T09:25:19;3.37;;;1.40;;
16640;SDS011;8434;47.990;7.880;2024-01-15T09:28:05;2.97;;;1.60;;
16640;SDS011;8434;47.990;7.880;2024-01-15T09:30:50;1.33;;;1.10;;
16640;SDS011;8434;47.990;7.880;2024-01-15T09:33:36;2.70;;;1.40;;
16640;SDS011;8434;47.990;7.880;2024-01-15T09:36:21;2.13;;;1.47;;
16640;SDS011;8434;47.990;7.880;2024-01-15T09:39:08;3.73;;;1.50;;
16640;SDS011;8434;47.990;7.880;2024-01-15T09:41:54;1.27;;;1.17;;
16640;SDS011;8434;47.990;7.880;2024-01-15T09:44:40;3.20;;;1.20;;
16640;SDS011;8434;47.990;7.880;2024-01-15T09:47:25;2.13;;;1.60;;
16640;SDS011;8434;47.990;7.880;2024-01-15T09:50:11;4.00;;;2.20;;
16640;SDS011;8434;47.990;7.880;2024-01-15T09:52:56;4.33;;;2.13;;
16640;SDS011;8434;47.990;7.880;2024-01-15T09:55:43;4.17;;;2.17;;
16640;SDS011;8434;47.990;7.880;2024-01-15T09:58:28;5.20;;;2.60;;
16640;SDS011;8434;47.990;7.880;2024-01-15T10:01:14;5.23;;;2.70;;
16640;SDS011;8434;47.990;7.880;2024-01-15T10:04:01;6.83;;;3.93;;
16640;SDS011;8434;47.990;7.880;2024-01-15T10:06:47;5.20;;;2.50;;
16640;SDS011;8434;47.990;7.880;2024-01-15T10:09:35;5.07;;;2.60;;
16640;SDS011;8434;47.990;7.880;2024-01-15T10:12:22;6.47;;;3.80;;
16640;SDS011;8434;47.990;7.880;2024-01-15T10:15:09;6.67;;;2.90;;
16640;SDS011;8434;47.990;7.880;2024-01-15T10:17:54;6.63;;;2.90;;
16640;SDS011;8434;47.990;7.880;2024-01-15T10:20:40;7.13;;;3.87;;
16640;SDS011;8434;47.990;7.880;2024-01-15T10:23:26;5.43;;;2.63;;
16640;SDS011;8434;47.990;7.880;2024-01-15T10:26:11;7.40;;;3.87;;
16640;SDS011;8434;47.990;7.880;2024-01-15T10:28:59;10.40;;;5.03;;
16640;SDS011;8434;47.990;7.880;2024-01-15T10:31:45;9.07;;;4.47;;
16640;SDS011;8434;47.990;7.880;2024-01-15T10:34:30;9.10;;;4.53;;
16640;SDS011;8434;47.990;7.880;2024-01-15T10:37:16;7.23;;;3.83;;
16640;SDS011;8434;47.990;7.880;2024-01-15T10:40:01;8.43;;;3.77;;
16640;SDS011;8434;47.990;7.880;2024-01-15T10:42:48;8.90;;;4.37;;
16640;SDS011;8434;47.990;7.880;2024-01-15T10:45:35;12.23;;;5.27;;
16640;SDS011;8434;47.990;7.880;2024-01-15T10:48:21;9.80;;;4.70;;
16640;SDS011;8434;47.990;7.880;2024-01-15T10:51:06;12.23;;;6.03;;
16640;SDS011;8434;47.990;7.880;2024-01-15T10:53:54;10.37;;;4.90;;
16640;SDS011;8434;47.990;7.880;2024-01-15T10:56:39;8.53;;;4.57;;
16640;SDS011;8434;47.990;7.880;2024-01-15T10:59:25;11.23;;;5.40;;
16640;SDS011;8434;47.990;7.880;2024-01-15T11:02:12;11.57;;;6.20;;
16640;SDS011;8434;47.990;7.880;2024-01-15T11:04:58;13.43;;;5.90;;
16640;SDS011;8434;47.990;7.880;2024-01-15T11:07:43;8.50;;;4.43;;
16640;SDS011;8434;47.990;7.880;2024-01-15T11:10:38;14.30;;;7.17;;
16640;SDS011;8434;47.990;7.880;2024-01-15T11:13:39;11.90;;;5.10;;
16640;SDS011;8434;47.990;7.880;2024-01-15T11:16:25;17.87;;;6.70;;
16640;SDS011;8434;47.990;7.880;2024-01-15T11:19:38;12.83;;;5.90;;
16640;SDS011;8434;47.990;7.880;2024-01-15T11:25:34;11.17;;;6.33;;
16640;SDS011;8434;47.990;7.880;2024-01-15T11:31:20;11.83;;;5.97;;
16640;SDS011;8434;47.990;7.880;2024-01-15T11:34:06;12.77;;;6.87;;
16640;SDS011;8434;47.990;7.880;2024-01-15T11:37:02;12.67;;;6.73;;
16640;SDS011;8434;47.990;7.880;2024-01-15T11:39:47;12.63;;;6.37;;
16640;SDS011;8434;47.990;7.880;2024-01-15T11:42:33;14.97;;;6.43;;
16640;SDS011;8434;47.990;7.880;2024-01-15T11:45:19;12.37;;;5.70;;
16640;SDS011;8434;47.990;7.880;2024-01-15T11:48:11;16.67;;;7.33;;
16640;SDS011;8434;47.990;7.880;2024-01-15T11:50:57;12.90;;;6.43;;
16640;SDS011;8434;47.990;7.880;2024-01-15T11:53:47;12.73;;;7.37;;
16640;SDS011;8434;47.990;7.880;2024-01-15T11:56:33;13.37;;;7.37;;
16640;SDS011;8434;47.990;7.880;2024-01-15T11:59:18;13.70;;;5.83;;
16640;SDS011;8434;47.990;7.880;2024-01-15T12:02:04;12.40;;;5.97;;
16640;SDS011;8434;47.990;7.880;2024-01-15T12:04:49;13.60;;;7.17;;
16640;SDS011;8434;47.990;7.880;2024-01-15T12:07:35;12.67;;;6.87;;
16640;SDS011;8434;47.990;7.880;2024-01-15T12:10:22;13.77;;;5.63;;
16640;SDS011;8434;47.990;7.880;2024-01-15T12:13:10;12.77;;;5.40;;
16640;SDS011;8434;47.990;7.880;2024-01-15T12:15:55;9.80;;;5.17;;
16640;SDS011;8434;47.990;7.880;2024-01-15T12:18:41;12.50;;;5.63;;
16640;SDS011;8434;47.990;7.880;2024-01-15T12:21:26;11.93;;;6.07;;
16640;SDS011;8434;47.990;7.880;2024-01-15T12:24:12;13.30;;;6.50;;
16640;SDS011;8434;47.990;7.880;2024-01-15T12:26:58;14.10;;;5.80;;
16640;SDS011;8434;47.990;7.880;2024-01-15T12:29:44;12.23;;;6.43;;
16640;SDS011;8434;47.990;7.880;2024-01-15T12:32:29;8.67;;;5.40;;
16640;SDS011;8434;47.990;7.880;2024-01-15T12:35:15;15.17;;;6.03;;
16640;SDS011;8434;47.990;7.880;2024-01-15T12:38:00;13.03;;;6.13;;
16640;SDS011;8434;47.990;7.880;2024-01-15T12:40:47;11.10;;;5.67;;
16640;SDS011;8434;47.990;7.880;2024-01-15T12:43:34;11.80;;;5.50;;
16640;SDS011;8434;47.990;7.880;2024-01-15T12:46:19;9.13;;;5.63;;
16640;SDS011;8434;47.990;7.880;2024-01-15T12:49:05;9.70;;;4.90;;
16640;SDS011;8434;47.990;7.880;2024-01-15T12:51:54;7.23;;;3.83;;
16640;SDS011;8434;47.990;7.880;2024-01-15T12:54:39;9.63;;;4.37;;
16640;SDS011;8434;47.990;7.880;2024-01-15T12:57:25;12.33;;;5.07;;
16640;SDS011;8434;47.990;7.880;2024-01-15T13:00:12;10.30;;;5.07;;
16640;SDS011;8434;47.990;7.880;2024-01-15T13:02:58;7.77;;;4.80;;
16640;SDS011;8434;47.990;7.880;2024-01-15T13:05:44;9.80;;;6.40;;
16640;SDS011;8434;47.990;7.880;2024-01-15T13:08:30;10.50;;;5.53;;
16640;SDS011;8434;47.990;7.880;2024-01-15T13:11:15;10.87;;;6.10;;
16640;SDS011;8434;47.990;7.880;2024-01-15T13:14:01;11.87;;;5.97;;
16640;SDS011;8434;47.990;7.880;2024-01-15T13:16:48;10.80;;;5.67;;
16640;SDS011;8434;47.990;7.880;2024-01-15T13:19:34;8.50;;;4.80;;
16640;SDS011;8434;47.990;7.880;2024-01-15T13:22:19;11.03;;;5.43;;
16640;SDS011;8434;47.990;7.880;2024-01-15T13:25:05;9.50;;;4.07;;
16640;SDS011;8434;47.990;7.880;2024-01-15T13:27:51;10.00;;;5.47;;
16640;SDS011;8434;47.990;7.880;2024-01-15T13:30:37;10.87;;;4.67;;
16640;SDS011;8434;47.990;7.880;2024-01-15T13:33:23;11.53;;;5.30;;
16640;SDS011;8434;47.990;7.880;2024-01-15T13:36:09;10.77;;;5.90;;
16640;SDS011;8434;47.990;7.880;2024-01-15T13:38:54;9.90;;;5.30;;
16640;SDS011;8434;47.990;7.880;2024-01-15T13:41:39;8.53;;;5.17;;
16640;SDS011;8434;47.990;7.880;2024-01-15T13:44:25;11.20;;;5.80;;
16640;SDS011;8434;47.990;7.880;2024-01-15T13:47:11;10.77;;;5.13;;
16640;SDS011;8434;47.990;7.880;2024-01-15T13:49:58;14.30;;;6.77;;
16640;SDS011;8434;47.990;7.880;2024-01-15T13:52:44;12.60;;;5.77;;
16640;SDS011;8434;47.990;7.880;2024-01-15T13:55:30;12.00;;;5.97;;
16640;SDS011;8434;47.990;7.880;2024-01-15T13:58:15;10.77;;;5.43;;
16640;SDS011;8434;47.990;7.880;2024-01-15T14:01:02;13.13;;;7.63;;
16640;SDS011;8434;47.990;7.880;2024-01-15T14:03:48;12.80;;;6.70;;
16640;SDS011;8434;47.990;7.880;2024-01-15T14:06:35;10.33;;;5.60;;
16640;SDS011;8434;47.990;7.880;2024-01-15T14:09:20;15.50;;;7.20;;
16640;SDS011;8434;47.990;7.880;2024-01-15T14:12:06;11.53;;;5.53;;
16640;SDS011;8434;47.990;7.880;2024-01-15T14:14:51;10.10;;;5.37;;
16640;SDS011;8434;47.990;7.880;2024-01-15T14:17:38;16.37;;;7.43;;
16640;SDS011;8434;47.990;7.880;2024-01-15T14:20:23;10.87;;;6.43;;
16640;SDS011;8434;47.990;7.880;2024-01-15T14:23:10;15.53;;;8.10;;
16640;SDS011;8434;47.990;7.880;2024-01-15T14:25:56;14.97;;;7.23;;
16640;SDS011;8434;47.990;7.880;2024-01-15T14:28:41;11.90;;;7.27;;
16640;SDS011;8434;47.990;7.880;2024-01-15T14:31:26;14.53;;;7.13;;
16640;SDS011;8434;47.990;7.880;2024-01-15T14:34:12;12.83;;;5.90;;
16640;SDS011;8434;47.990;7.880;2024-01-15T14:36:58;15.20;;;8.10;;
16640;SDS011;8434;47.990;7.880;2024-01-15T14:39:44;10.20;;;5.73;;
16640;SDS011;8434;47.990;7.880;2024-01-15T14:42:30;8.03;;;4.37;;
16640;SDS011;8434;47.990;7.880;2024-01-15T14:45:15;8.73;;;4.93;;
16640;SDS011;8434;47.990;7.880;2024-01-15T14:48:00;11.57;;;6.30;;
16640;SDS011;8434;47.990;7.880;2024-01-15T14:50:46;15.70;;;7.70;;
16640;SDS011;8434;47.990;7.880;2024-01-15T14:53:31;14.17;;;6.93;;
16640;SDS011;8434;47.990;7.880;2024-01-15T14:56:18;13.13;;;7.40;;
16640;SDS011;8434;47.990;7.880;2024-01-15T14:59:04;15.73;;;8.00;;
16640;SDS011;8434;47.990;7.880;2024-01-15T15:01:49;15.70;;;6.50;;
16640;SDS011;8434;47.990;7.880;2024-01-15T15:04:35;16.17;;;8.17;;
16640;SDS011;8434;47.990;7.880;2024-01-15T15:07:20;13.80;;;6.53;;
16640;SDS011;8434;47.990;7.880;2024-01-15T15:10:07;16.00;;;7.87;;
16640;SDS011;8434;47.990;7.880;2024-01-15T15:12:54;15.00;;;7.60;;
16640;SDS011;8434;47.990;7.880;2024-01-15T15:15:39;11.80;;;6.87;;
16640;SDS011;8434;47.990;7.880;2024-01-15T15:18:25;16.33;;;7.40;;
16640;SDS011;8434;47.990;7.880;2024-01-15T15:21:10;14.53;;;7.10;;
16640;SDS011;8434;47.990;7.880;2024-01-15T15:23:56;13.50;;;6.90;;
16640;SDS011;8434;47.990;7.880;2024-01-15T15:26:41;12.23;;;5.93;;
16640;SDS011;8434;47.990;7.880;2024-01-15T15:29:28;13.10;;;6.70;;
16640;SDS011;8434;47.990;7.880;2024-01-15T15:32:14;14.97;;;7.87;;
16640;SDS011;8434;47.990;7.880;2024-01-15T15:34:59;12.70;;;6.90;;
16640;SDS011;8434;47.990;7.880;2024-01-15T15:37:45;12.57;;;7.37;;
16640;SDS011;8434;47.990;7.880;2024-01-15T15:40:30;12.50;;;6.07;;
16640;SDS011;8434;47.990;7.880;2024-01-15T15:43:16;12.77;;;6.03;;
16640;SDS011;8434;47.990;7.880;2024-01-15T15:46:02;12.07;;;6.27;;
16640;SDS011;8434;47.990;7.880;2024-01-15T15:48:49;12.73;;;6.90;;
16640;SDS011;8434;47.990;7.880;2024-01-15T15:51:34;10.60;;;5.30;;
16640;SDS011;8434;47.990;7.880;2024-01-15T15:54:20;15.90;;;7.50;;
16640;SDS011;8434;47.990;7.880;2024-01-15T15:57:06;10.57;;;5.40;;
16640;SDS011;8434;47.990;7.880;2024-01-15T15:59:51;12.40;;;5.67;;
16640;SDS011;8434;47.990;7.880;2024-01-15T16:02:39;11.63;;;5.30;;
16640;SDS011;8434;47.990;7.880;2024-01-15T16:05:24;10.57;;;5.23;;
16640;SDS011;8434;47.990;7.880;2024-01-15T16:08:09;13.10;;;6.80;;
16640;SDS011;8434;47.990;7.880;2024-01-15T16:10:55;13.40;;;8.13;;
16640;SDS011;8434;47.990;7.880;2024-01-15T16:13:40;11.70;;;6.30;;
16640;SDS011;8434;47.990;7.880;2024-01-15T16:16:26;14.60;;;6.87;;
16640;SDS011;8434;47.990;7.880;2024-01-15T16:19:13;16.07;;;8.03;;
16640;SDS011;8434;47.990;7.880;2024-01-15T16:21:58;14.93;;;7.77;;
16640;SDS011;8434;47.990;7.880;2024-01-15T16:24:44;14.20;;;7.80;;
16640;SDS011;8434;47.990;7.880;2024-01-15T16:27:29;15.00;;;8.23;;
16640;SDS011;8434;47.990;7.880;2024-01-15T16:30:15;15.97;;;8.67;;
16640;SDS011;8434;47.990;7.880;2024-01-15T16:33:01;12.27;;;6.60;;
16640;SDS011;8434;47.990;7.880;2024-01-15T16:35:47;18.97;;;9.17;;
16640;SDS011;8434;47.990;7.880;2024-01-15T16:38:33;15.97;;;7.30;;
16640;SDS011;8434;47.990;7.880;2024-01-15T16:41:18;15.17;;;6.73;;
16640;SDS011;8434;47.990;7.880;2024-01-15T16:44:04;17.40;;;8.23;;